Friday, January 19, 2018, 3:57 AM GMT
Back to Local

CYUL, Montreal / Pierre Elliot Trudeau International Airport, Que

Location: , , Canada Lat: 45.467
Local Time: 3:57 AM GMT ( 3:57 GMT) Lon: -73.75
Time Zone: GMT Elev: 101 ft

Show me the last for .
Show Decoded

2018-01-19 03:00 METAR CYUL 190300Z 25011KT 15SM OVC045 M05/M08 A2992 RMK SC8 SLP134 =
2018-01-19 02:00 METAR CYUL 190200Z 24008KT 15SM BKN050 OVC170 M05/M08 A2991 RMK SC5AC3 SLP132 =
2018-01-19 01:00 METAR CYUL 190100Z 24008KT 15SM SCT050 BKN180 M05/M08 A2991 RMK SC4AC3 SLP133 =
2018-01-19 00:33 METAR CYUL 190033Z 24008KT 15SM FEW050 BKN200 M06/M09 A2992 RMK SC2CS5 SLP135 =
2018-01-19 00:00 METAR CYUL 190000Z 25009KT 15SM -SN BKN045 OVC065 M05/M07 A2992 RMK SC6SC2
                 SLP135 =
2018-01-18 23:00 METAR CYUL 182300Z 25010KT 12SM -SN BKN045 OVC090 M05/M07 A2991 RMK SC6AC2
                 SLP133 =
2018-01-18 22:47 METAR CYUL 182247Z 25010KT 12SM -SN OVC045 M05/M08 A2991 RMK SC8 SLP132 =
2018-01-18 22:00 METAR CYUL 182200Z 24012KT 15SM OVC047 M04/M07 A2991 RMK SC8 SLP133 =
2018-01-18 21:24 METAR CYUL 182124Z 25012G19KT 12SM OVC045 M04/M07 A2991 RMK SC8 SLP131
2018-01-18 21:00 METAR CYUL 182100Z 25014G19KT 12SM OVC045 M04/M07 A2991 RMK SC8 INTMT -SN SLP132
                 =
2018-01-18 20:00 METAR CYUL 182000Z 24014G21KT 15SM -SN SCT017 OVC046 M03/M07 A2990 RMK SC3SC5
                 SLP130 =
2018-01-18 19:00 METAR CYUL 181900Z 23013KT 12SM BKN017 OVC045 M03/M07 A2990 RMK SC6SC2 SLP130 =
2018-01-18 18:00 METAR CYUL 181800Z 24012G18KT 15SM BKN017 BKN050 M03/M07 A2990 RMK SC5SC2 SLP130
                 =
2018-01-18 17:00 METAR CYUL 181700Z 25013G20KT 15SM BKN017 OVC062 M04/M07 A2992 RMK SC7SC1 SLP134
                 =
2018-01-18 16:00 METAR CYUL 181600Z 24015G20KT 15SM FEW045 SCT063 BKN120 M04/M07 A2993 RMK
                 SC2SC1AC4 SLP139 =
2018-01-18 15:43 METAR CYUL 181543Z 24017KT 12SM SCT048 BKN150 M04/M07 A2994 RMK SC3AC4 SLP141 =
2018-01-18 15:00 METAR CYUL 181500Z 25014G20KT 8SM -SN FEW030 OVC048 M04/M08 A2994 RMK SC2SC6
                 SLP142 =
2018-01-18 14:00 METAR CYUL 181400Z 24016G22KT 8SM -SN BKN045 OVC060 M05/M08 A2993 RMK SC7SC1
                 SLP140 =
2018-01-18 13:00 METAR CYUL 181300Z 23013G20KT 10SM -SN OVC045 M05/M08 A2993 RMK SC8 SLP138 =
2018-01-18 12:00 METAR CYUL 181200Z 23014KT 15SM -SN FEW020 OVC045 M05/M08 A2993 RMK SC1SC7
                 SLP139 =
2018-01-18 11:00 METAR CYUL 181100Z 22014KT 15SM -SN FEW017 OVC040 M05/M08 A2993 RMK SC2SC6
                 SLP139 =
2018-01-18 10:00 METAR CYUL 181000Z 23009KT 15SM -SN FEW018 OVC032 M06/M08 A2993 RMK SC2SC6
                 SLP140 =
2018-01-18 09:00 METAR CYUL 180900Z 22014KT 15SM -SN FEW020 OVC035 M06/M08 A2995 RMK SC1SC7
                 SLP145 =
2018-01-18 08:00 METAR CYUL 180800Z 23012KT 3SM -SN FEW012 OVC030 M06/M08 A2998 RMK SC2SC6 SLP155
                 =
2018-01-18 07:00 METAR CYUL 180700Z 23016G21KT 6SM -SN DRSN SCT019 OVC030 M06/M09 A2999 RMK
                 SC3SC5 SLP158 =
2018-01-18 06:45 METAR CYUL 180645Z 23018KT 10SM -SN DRSN BKN019 OVC030 M06/M09 A2999 RMK SC5SC3
                 SLP159 =
2018-01-18 06:00 METAR CYUL 180600Z 23017G24KT 15SM DRSN FEW020 OVC030 M06/M09 A2999 RMK SC1SC7
                 SLP160 =
2018-01-18 05:45 METAR CYUL 180545Z 23018KT 15SM DRSN FEW020 OVC028 M06/M09 A2999 RMK SC2SC6
                 SLP161 =
2018-01-18 05:15 METAR CYUL 180515Z 23019G24KT 15SM -SN DRSN BKN022 OVC040 M06/M09 A3000 RMK
                 SC7SC1 SLP164 =
2018-01-18 05:00 METAR CYUL 180500Z 23016G21KT 15SM VCSH BKN022 OVC130 M06/M09 A3001 RMK SC7AC1
                 SLP166 =
2018-01-18 04:00 METAR CYUL 180400Z 23011G16KT 15SM BKN018 BKN025 OVC130 M06/M10 A3002 RMK
                 SC6SC1AC1 SLP171 =

Support USWX by starting your Amazon purchase here.